sensor_id;sensor_type;location;lat;lon;timestamp;P1;durP1;ratioP1;P2;durP2;ratioP2
22786;SDS011;63134;52.020;4.714;2023-07-20T00:02:10;4.82;;;4.10;;
22786;SDS011;63134;52.020;4.714;2023-07-20T00:04:55;4.10;;;3.70;;
22786;SDS011;63134;52.020;4.714;2023-07-20T00:07:41;4.05;;;3.65;;
22786;SDS011;63134;52.020;4.714;2023-07-20T00:10:26;5.70;;;4.60;;
22786;SDS011;63134;52.020;4.714;2023-07-20T00:13:12;4.80;;;4.30;;
22786;SDS011;63134;52.020;4.714;2023-07-20T00:15:59;5.47;;;4.80;;
22786;SDS011;63134;52.020;4.714;2023-07-20T00:18:47;7.93;;;6.35;;
22786;SDS011;63134;52.020;4.714;2023-07-20T00:21:35;6.45;;;5.60;;
22786;SDS011;63134;52.020;4.714;2023-07-20T00:24:21;6.95;;;5.72;;
22786;SDS011;63134;52.020;4.714;2023-07-20T00:27:07;7.47;;;6.20;;
22786;SDS011;63134;52.020;4.714;2023-07-20T00:29:53;5.35;;;4.85;;
22786;SDS011;63134;52.020;4.714;2023-07-20T00:32:39;5.90;;;4.93;;
22786;SDS011;63134;52.020;4.714;2023-07-20T00:35:28;6.85;;;5.85;;
22786;SDS011;63134;52.020;4.714;2023-07-20T00:38:13;6.40;;;5.60;;
22786;SDS011;63134;52.020;4.714;2023-07-20T00:41:00;7.82;;;7.05;;
22786;SDS011;63134;52.020;4.714;2023-07-20T00:43:45;7.50;;;5.93;;
22786;SDS011;63134;52.020;4.714;2023-07-20T00:46:31;6.97;;;6.30;;
22786;SDS011;63134;52.020;4.714;2023-07-20T00:49:18;5.07;;;4.65;;
22786;SDS011;63134;52.020;4.714;2023-07-20T00:52:06;4.90;;;4.50;;
22786;SDS011;63134;52.020;4.714;2023-07-20T00:55:00;3.88;;;3.50;;
22786;SDS011;63134;52.020;4.714;2023-07-20T00:57:47;4.05;;;3.35;;
22786;SDS011;63134;52.020;4.714;2023-07-20T01:00:33;3.05;;;2.75;;
22786;SDS011;63134;52.020;4.714;2023-07-20T01:03:19;3.30;;;3.00;;
22786;SDS011;63134;52.020;4.714;2023-07-20T01:09:17;4.13;;;2.85;;
22786;SDS011;63134;52.020;4.714;2023-07-20T01:12:12;4.00;;;2.40;;
22786;SDS011;63134;52.020;4.714;2023-07-20T01:15:10;3.15;;;2.90;;
22786;SDS011;63134;52.020;4.714;2023-07-20T01:17:56;2.65;;;2.45;;
22786;SDS011;63134;52.020;4.714;2023-07-20T01:20:42;3.50;;;2.50;;
22786;SDS011;63134;52.020;4.714;2023-07-20T01:23:33;2.13;;;1.92;;
22786;SDS011;63134;52.020;4.714;2023-07-20T01:26:46;2.25;;;2.05;;
22786;SDS011;63134;52.020;4.714;2023-07-20T01:32:45;3.38;;;2.60;;
22786;SDS011;63134;52.020;4.714;2023-07-20T01:35:33;2.70;;;2.50;;
22786;SDS011;63134;52.020;4.714;2023-07-20T01:38:20;2.50;;;2.20;;
22786;SDS011;63134;52.020;4.714;2023-07-20T01:41:07;2.67;;;2.45;;
22786;SDS011;63134;52.020;4.714;2023-07-20T01:43:53;6.82;;;2.17;;
22786;SDS011;63134;52.020;4.714;2023-07-20T01:46:42;2.42;;;2.22;;
22786;SDS011;63134;52.020;4.714;2023-07-20T01:49:27;2.60;;;2.40;;
22786;SDS011;63134;52.020;4.714;2023-07-20T01:52:13;3.58;;;3.28;;
22786;SDS011;63134;52.020;4.714;2023-07-20T01:54:58;3.75;;;2.65;;
22786;SDS011;63134;52.020;4.714;2023-07-20T01:57:44;2.90;;;2.60;;
22786;SDS011;63134;52.020;4.714;2023-07-20T02:00:30;2.55;;;2.35;;
22786;SDS011;63134;52.020;4.714;2023-07-20T02:03:18;3.00;;;2.67;;
22786;SDS011;63134;52.020;4.714;2023-07-20T02:06:05;3.40;;;2.90;;
22786;SDS011;63134;52.020;4.714;2023-07-20T02:08:50;2.50;;;2.30;;
22786;SDS011;63134;52.020;4.714;2023-07-20T02:11:36;2.90;;;2.70;;
22786;SDS011;63134;52.020;4.714;2023-07-20T02:14:22;3.25;;;2.50;;
22786;SDS011;63134;52.020;4.714;2023-07-20T02:17:07;2.60;;;2.40;;
22786;SDS011;63134;52.020;4.714;2023-07-20T02:19:58;2.75;;;2.55;;
22786;SDS011;63134;52.020;4.714;2023-07-20T02:22:43;3.00;;;2.45;;
22786;SDS011;63134;52.020;4.714;2023-07-20T02:25:29;2.60;;;2.40;;
22786;SDS011;63134;52.020;4.714;2023-07-20T02:28:14;2.83;;;2.63;;
22786;SDS011;63134;52.020;4.714;2023-07-20T02:31:00;2.40;;;2.20;;
22786;SDS011;63134;52.020;4.714;2023-07-20T02:33:45;3.40;;;3.10;;
22786;SDS011;63134;52.020;4.714;2023-07-20T02:36:31;3.50;;;3.20;;
22786;SDS011;63134;52.020;4.714;2023-07-20T02:39:18;3.47;;;3.17;;
22786;SDS011;63134;52.020;4.714;2023-07-20T02:42:04;3.22;;;2.95;;
22786;SDS011;63134;52.020;4.714;2023-07-20T02:44:53;2.72;;;2.53;;
22786;SDS011;63134;52.020;4.714;2023-07-20T02:47:39;2.58;;;2.38;;
22786;SDS011;63134;52.020;4.714;2023-07-20T02:50:25;3.08;;;2.78;;
22786;SDS011;63134;52.020;4.714;2023-07-20T02:53:11;2.90;;;2.70;;
22786;SDS011;63134;52.020;4.714;2023-07-20T02:55:56;3.63;;;3.25;;
22786;SDS011;63134;52.020;4.714;2023-07-20T02:58:42;3.33;;;3.03;;
22786;SDS011;63134;52.020;4.714;2023-07-20T03:01:33;2.67;;;2.17;;
22786;SDS011;63134;52.020;4.714;2023-07-20T03:04:19;2.22;;;2.03;;
22786;SDS011;63134;52.020;4.714;2023-07-20T03:07:11;1.52;;;1.42;;
22786;SDS011;63134;52.020;4.714;2023-07-20T03:09:57;1.70;;;1.60;;
22786;SDS011;63134;52.020;4.714;2023-07-20T03:12:43;1.73;;;1.63;;
22786;SDS011;63134;52.020;4.714;2023-07-20T03:15:29;1.60;;;1.50;;
22786;SDS011;63134;52.020;4.714;2023-07-20T03:18:16;2.20;;;2.10;;
22786;SDS011;63134;52.020;4.714;2023-07-20T03:21:01;2.28;;;2.10;;
22786;SDS011;63134;52.020;4.714;2023-07-20T03:23:51;2.45;;;2.30;;
22786;SDS011;63134;52.020;4.714;2023-07-20T03:26:37;2.80;;;2.60;;
22786;SDS011;63134;52.020;4.714;2023-07-20T03:29:24;2.75;;;2.55;;
22786;SDS011;63134;52.020;4.714;2023-07-20T03:32:10;2.60;;;2.38;;
22786;SDS011;63134;52.020;4.714;2023-07-20T03:34:55;2.63;;;2.42;;
22786;SDS011;63134;52.020;4.714;2023-07-20T03:37:41;2.92;;;2.72;;
22786;SDS011;63134;52.020;4.714;2023-07-20T03:40:27;2.90;;;2.60;;
22786;SDS011;63134;52.020;4.714;2023-07-20T03:43:12;2.70;;;2.50;;
22786;SDS011;63134;52.020;4.714;2023-07-20T03:46:00;2.50;;;2.28;;
22786;SDS011;63134;52.020;4.714;2023-07-20T03:48:52;2.47;;;2.28;;
22786;SDS011;63134;52.020;4.714;2023-07-20T03:51:38;2.00;;;1.90;;
22786;SDS011;63134;52.020;4.714;2023-07-20T03:54:23;1.85;;;1.60;;
22786;SDS011;63134;52.020;4.714;2023-07-20T03:57:09;1.50;;;1.40;;
22786;SDS011;63134;52.020;4.714;2023-07-20T03:59:54;1.25;;;1.15;;
22786;SDS011;63134;52.020;4.714;2023-07-20T04:02:40;1.17;;;1.10;;
22786;SDS011;63134;52.020;4.714;2023-07-20T04:05:27;1.17;;;1.10;;
22786;SDS011;63134;52.020;4.714;2023-07-20T04:08:16;1.42;;;1.30;;
22786;SDS011;63134;52.020;4.714;2023-07-20T04:11:02;2.47;;;2.28;;
22786;SDS011;63134;52.020;4.714;2023-07-20T04:13:48;2.65;;;1.98;;
22786;SDS011;63134;52.020;4.714;2023-07-20T04:16:34;2.08;;;1.88;;
22786;SDS011;63134;52.020;4.714;2023-07-20T04:19:19;1.77;;;1.65;;
22786;SDS011;63134;52.020;4.714;2023-07-20T04:22:05;1.90;;;1.80;;
22786;SDS011;63134;52.020;4.714;2023-07-20T04:24:51;1.92;;;1.83;;
22786;SDS011;63134;52.020;4.714;2023-07-20T04:27:37;2.25;;;2.05;;
22786;SDS011;63134;52.020;4.714;2023-07-20T04:30:23;1.65;;;1.55;;
22786;SDS011;63134;52.020;4.714;2023-07-20T04:33:08;2.17;;;2.00;;
22786;SDS011;63134;52.020;4.714;2023-07-20T04:35:57;2.10;;;1.92;;
22786;SDS011;63134;52.020;4.714;2023-07-20T04:38:51;2.45;;;2.10;;
22786;SDS011;63134;52.020;4.714;2023-07-20T04:41:38;2.38;;;2.17;;
22786;SDS011;63134;52.020;4.714;2023-07-20T04:44:25;2.50;;;1.70;;
22786;SDS011;63134;52.020;4.714;2023-07-20T04:47:10;2.95;;;2.50;;
22786;SDS011;63134;52.020;4.714;2023-07-20T04:49:56;3.95;;;2.72;;
22786;SDS011;63134;52.020;4.714;2023-07-20T04:52:48;2.10;;;2.00;;
22786;SDS011;63134;52.020;4.714;2023-07-20T04:55:37;1.52;;;1.42;;
22786;SDS011;63134;52.020;4.714;2023-07-20T04:58:25;1.50;;;1.40;;
22786;SDS011;63134;52.020;4.714;2023-07-20T05:01:12;0.95;;;0.95;;
22786;SDS011;63134;52.020;4.714;2023-07-20T05:03:58;1.52;;;1.42;;
22786;SDS011;63134;52.020;4.714;2023-07-20T05:06:43;0.95;;;0.90;;
22786;SDS011;63134;52.020;4.714;2023-07-20T05:09:32;1.67;;;1.58;;
22786;SDS011;63134;52.020;4.714;2023-07-20T05:12:17;2.25;;;2.13;;
22786;SDS011;63134;52.020;4.714;2023-07-20T05:15:05;1.92;;;1.80;;
22786;SDS011;63134;52.020;4.714;2023-07-20T05:17:51;2.53;;;2.33;;
22786;SDS011;63134;52.020;4.714;2023-07-20T05:20:37;3.20;;;2.90;;
22786;SDS011;63134;52.020;4.714;2023-07-20T05:23:23;4.88;;;3.03;;
22786;SDS011;63134;52.020;4.714;2023-07-20T05:26:09;3.10;;;2.80;;
22786;SDS011;63134;52.020;4.714;2023-07-20T05:28:58;3.28;;;2.97;;
22786;SDS011;63134;52.020;4.714;2023-07-20T05:31:43;3.13;;;2.53;;
22786;SDS011;63134;52.020;4.714;2023-07-20T05:34:29;3.78;;;2.92;;
22786;SDS011;63134;52.020;4.714;2023-07-20T05:37:15;3.95;;;2.90;;
22786;SDS011;63134;52.020;4.714;2023-07-20T05:40:01;3.45;;;2.60;;
22786;SDS011;63134;52.020;4.714;2023-07-20T05:42:47;2.72;;;2.53;;
22786;SDS011;63134;52.020;4.714;2023-07-20T05:45:34;2.30;;;2.10;;
22786;SDS011;63134;52.020;4.714;2023-07-20T05:48:20;1.60;;;1.50;;
22786;SDS011;63134;52.020;4.714;2023-07-20T05:51:06;2.70;;;2.10;;
22786;SDS011;63134;52.020;4.714;2023-07-20T05:53:51;2.17;;;1.80;;
22786;SDS011;63134;52.020;4.714;2023-07-20T05:56:37;2.35;;;1.70;;
22786;SDS011;63134;52.020;4.714;2023-07-20T05:59:24;1.63;;;1.48;;
22786;SDS011;63134;52.020;4.714;2023-07-20T06:02:10;1.40;;;1.30;;
22786;SDS011;63134;52.020;4.714;2023-07-20T06:04:56;1.30;;;1.20;;
22786;SDS011;63134;52.020;4.714;2023-07-20T06:07:42;1.85;;;1.30;;
22786;SDS011;63134;52.020;4.714;2023-07-20T06:10:27;1.48;;;1.38;;
22786;SDS011;63134;52.020;4.714;2023-07-20T06:13:13;1.30;;;1.20;;
22786;SDS011;63134;52.020;4.714;2023-07-20T06:15:59;2.20;;;1.60;;
22786;SDS011;63134;52.020;4.714;2023-07-20T06:18:45;1.40;;;1.30;;
22786;SDS011;63134;52.020;4.714;2023-07-20T06:21:31;1.90;;;1.30;;
22786;SDS011;63134;52.020;4.714;2023-07-20T06:24:17;1.30;;;1.20;;
22786;SDS011;63134;52.020;4.714;2023-07-20T06:27:03;1.35;;;1.25;;
22786;SDS011;63134;52.020;4.714;2023-07-20T06:29:51;1.42;;;1.33;;
22786;SDS011;63134;52.020;4.714;2023-07-20T06:32:36;1.48;;;1.38;;
22786;SDS011;63134;52.020;4.714;2023-07-20T06:35:22;1.60;;;1.20;;
22786;SDS011;63134;52.020;4.714;2023-07-20T06:38:09;1.70;;;1.30;;
22786;SDS011;63134;52.020;4.714;2023-07-20T06:40:58;1.38;;;1.17;;
22786;SDS011;63134;52.020;4.714;2023-07-20T06:44:04;1.48;;;0.95;;
22786;SDS011;63134;52.020;4.714;2023-07-20T06:46:50;1.40;;;1.30;;
22786;SDS011;63134;52.020;4.714;2023-07-20T06:49:36;1.38;;;1.10;;
22786;SDS011;63134;52.020;4.714;2023-07-20T06:52:21;0.90;;;0.90;;
22786;SDS011;63134;52.020;4.714;2023-07-20T06:55:07;0.90;;;0.90;;
22786;SDS011;63134;52.020;4.714;2023-07-20T06:57:53;1.00;;;0.90;;
22786;SDS011;63134;52.020;4.714;2023-07-20T07:00:43;1.30;;;1.20;;
22786;SDS011;63134;52.020;4.714;2023-07-20T07:03:30;0.80;;;0.80;;
22786;SDS011;63134;52.020;4.714;2023-07-20T07:06:18;1.20;;;1.10;;
22786;SDS011;63134;52.020;4.714;2023-07-20T07:09:07;0.80;;;0.80;;
22786;SDS011;63134;52.020;4.714;2023-07-20T07:11:55;0.88;;;0.80;;
22786;SDS011;63134;52.020;4.714;2023-07-20T07:14:40;0.85;;;0.70;;
22786;SDS011;63134;52.020;4.714;2023-07-20T07:17:26;0.60;;;0.60;;
22786;SDS011;63134;52.020;4.714;2023-07-20T07:20:11;1.98;;;1.20;;
22786;SDS011;63134;52.020;4.714;2023-07-20T07:23:05;1.25;;;1.15;;
22786;SDS011;63134;52.020;4.714;2023-07-20T07:25:51;1.25;;;1.10;;
22786;SDS011;63134;52.020;4.714;2023-07-20T07:28:36;1.00;;;0.90;;
22786;SDS011;63134;52.020;4.714;2023-07-20T07:31:22;1.08;;;1.08;;
22786;SDS011;63134;52.020;4.714;2023-07-20T07:34:09;1.00;;;1.00;;
22786;SDS011;63134;52.020;4.714;2023-07-20T07:36:55;0.90;;;0.88;;
22786;SDS011;63134;52.020;4.714;2023-07-20T07:39:40;0.80;;;0.80;;
22786;SDS011;63134;52.020;4.714;2023-07-20T07:42:26;0.90;;;0.90;;
22786;SDS011;63134;52.020;4.714;2023-07-20T07:45:14;0.77;;;0.77;;
22786;SDS011;63134;52.020;4.714;2023-07-20T07:48:00;0.88;;;0.88;;
22786;SDS011;63134;52.020;4.714;2023-07-20T07:50:45;0.77;;;0.77;;
22786;SDS011;63134;52.020;4.714;2023-07-20T07:53:36;0.85;;;0.73;;
22786;SDS011;63134;52.020;4.714;2023-07-20T07:56:23;0.80;;;0.80;;
22786;SDS011;63134;52.020;4.714;2023-07-20T07:59:10;1.05;;;0.82;;
22786;SDS011;63134;52.020;4.714;2023-07-20T08:01:55;1.13;;;0.90;;
22786;SDS011;63134;52.020;4.714;2023-07-20T08:04:41;1.00;;;0.80;;
22786;SDS011;63134;52.020;4.714;2023-07-20T08:07:27;0.90;;;0.90;;
22786;SDS011;63134;52.020;4.714;2023-07-20T08:10:13;0.90;;;0.90;;
22786;SDS011;63134;52.020;4.714;2023-07-20T08:12:58;0.60;;;0.60;;
22786;SDS011;63134;52.020;4.714;2023-07-20T08:15:45;0.82;;;0.70;;
22786;SDS011;63134;52.020;4.714;2023-07-20T08:18:33;0.50;;;0.50;;
22786;SDS011;63134;52.020;4.714;2023-07-20T08:21:19;0.52;;;0.52;;
22786;SDS011;63134;52.020;4.714;2023-07-20T08:24:04;0.60;;;0.60;;
22786;SDS011;63134;52.020;4.714;2023-07-20T08:26:50;0.85;;;0.82;;
22786;SDS011;63134;52.020;4.714;2023-07-20T08:29:36;1.85;;;1.10;;
22786;SDS011;63134;52.020;4.714;2023-07-20T08:32:22;1.10;;;0.80;;
22786;SDS011;63134;52.020;4.714;2023-07-20T08:35:08;1.02;;;0.70;;
22786;SDS011;63134;52.020;4.714;2023-07-20T08:37:53;0.50;;;0.50;;
22786;SDS011;63134;52.020;4.714;2023-07-20T08:40:45;1.05;;;0.70;;
22786;SDS011;63134;52.020;4.714;2023-07-20T08:43:31;0.95;;;0.60;;
22786;SDS011;63134;52.020;4.714;2023-07-20T08:46:18;1.25;;;0.70;;
22786;SDS011;63134;52.020;4.714;2023-07-20T08:49:05;1.25;;;0.52;;
22786;SDS011;63134;52.020;4.714;2023-07-20T08:51:51;0.50;;;0.50;;
22786;SDS011;63134;52.020;4.714;2023-07-20T08:54:39;0.50;;;0.50;;
22786;SDS011;63134;52.020;4.714;2023-07-20T08:57:25;2.60;;;1.10;;
22786;SDS011;63134;52.020;4.714;2023-07-20T09:00:11;1.08;;;0.88;;
22786;SDS011;63134;52.020;4.714;2023-07-20T09:02:58;3.55;;;1.10;;
22786;SDS011;63134;52.020;4.714;2023-07-20T09:05:47;0.98;;;0.73;;
22786;SDS011;63134;52.020;4.714;2023-07-20T09:08:33;1.08;;;0.77;;
22786;SDS011;63134;52.020;4.714;2023-07-20T09:11:23;0.90;;;0.80;;
22786;SDS011;63134;52.020;4.714;2023-07-20T09:14:09;2.53;;;0.98;;
22786;SDS011;63134;52.020;4.714;2023-07-20T09:16:55;0.70;;;0.70;;
22786;SDS011;63134;52.020;4.714;2023-07-20T09:19:50;1.00;;;0.73;;
22786;SDS011;63134;52.020;4.714;2023-07-20T09:22:36;2.10;;;0.50;;
22786;SDS011;63134;52.020;4.714;2023-07-20T09:25:25;0.60;;;0.60;;
22786;SDS011;63134;52.020;4.714;2023-07-20T09:28:15;0.60;;;0.50;;
22786;SDS011;63134;52.020;4.714;2023-07-20T09:31:00;0.93;;;0.70;;
22786;SDS011;63134;52.020;4.714;2023-07-20T09:34:01;0.80;;;0.70;;
22786;SDS011;63134;52.020;4.714;2023-07-20T09:36:50;0.77;;;0.75;;
22786;SDS011;63134;52.020;4.714;2023-07-20T09:39:44;0.60;;;0.60;;
22786;SDS011;63134;52.020;4.714;2023-07-20T09:42:34;1.10;;;0.70;;
22786;SDS011;63134;52.020;4.714;2023-07-20T09:45:22;1.95;;;0.80;;
22786;SDS011;63134;52.020;4.714;2023-07-20T09:48:27;0.75;;;0.75;;
22786;SDS011;63134;52.020;4.714;2023-07-20T09:51:17;0.77;;;0.70;;
22786;SDS011;63134;52.020;4.714;2023-07-20T09:54:03;0.70;;;0.70;;
22786;SDS011;63134;52.020;4.714;2023-07-20T09:56:50;0.70;;;0.70;;
22786;SDS011;63134;52.020;4.714;2023-07-20T09:59:36;0.60;;;0.60;;
22786;SDS011;63134;52.020;4.714;2023-07-20T10:02:25;0.63;;;0.63;;
22786;SDS011;63134;52.020;4.714;2023-07-20T10:05:16;0.57;;;0.57;;
22786;SDS011;63134;52.020;4.714;2023-07-20T10:08:04;0.57;;;0.55;;
22786;SDS011;63134;52.020;4.714;2023-07-20T10:10:54;1.13;;;0.60;;
22786;SDS011;63134;52.020;4.714;2023-07-20T10:13:42;0.70;;;0.70;;
22786;SDS011;63134;52.020;4.714;2023-07-20T10:16:36;1.88;;;0.80;;
22786;SDS011;63134;52.020;4.714;2023-07-20T10:19:38;0.73;;;0.63;;
22786;SDS011;63134;52.020;4.714;2023-07-20T10:22:35;1.70;;;0.82;;
22786;SDS011;63134;52.020;4.714;2023-07-20T10:25:26;0.77;;;0.70;;
22786;SDS011;63134;52.020;4.714;2023-07-20T10:28:13;1.23;;;0.60;;
22786;SDS011;63134;52.020;4.714;2023-07-20T10:30:59;0.50;;;0.50;;
22786;SDS011;63134;52.020;4.714;2023-07-20T10:33:45;0.50;;;0.50;;
22786;SDS011;63134;52.020;4.714;2023-07-20T10:36:31;0.88;;;0.65;;
22786;SDS011;63134;52.020;4.714;2023-07-20T10:42:32;1.05;;;0.70;;
22786;SDS011;63134;52.020;4.714;2023-07-20T10:45:20;0.77;;;0.52;;
22786;SDS011;63134;52.020;4.714;2023-07-20T10:48:06;1.17;;;0.60;;
22786;SDS011;63134;52.020;4.714;2023-07-20T10:51:20;1.77;;;0.73;;
22786;SDS011;63134;52.020;4.714;2023-07-20T10:54:32;2.25;;;0.80;;
22786;SDS011;63134;52.020;4.714;2023-07-20T10:57:21;0.60;;;0.60;;
22786;SDS011;63134;52.020;4.714;2023-07-20T11:00:25;0.95;;;0.63;;
22786;SDS011;63134;52.020;4.714;2023-07-20T11:03:12;0.40;;;0.40;;
22786;SDS011;63134;52.020;4.714;2023-07-20T11:09:15;0.85;;;0.70;;
22786;SDS011;63134;52.020;4.714;2023-07-20T11:12:11;0.90;;;0.80;;
22786;SDS011;63134;52.020;4.714;2023-07-20T11:15:02;0.70;;;0.60;;
22786;SDS011;63134;52.020;4.714;2023-07-20T11:17:47;0.75;;;0.60;;
22786;SDS011;63134;52.020;4.714;2023-07-20T11:20:33;0.80;;;0.63;;
22786;SDS011;63134;52.020;4.714;2023-07-20T11:23:19;1.13;;;0.60;;
22786;SDS011;63134;52.020;4.714;2023-07-20T11:26:06;1.85;;;0.90;;
22786;SDS011;63134;52.020;4.714;2023-07-20T11:28:55;1.27;;;0.73;;
22786;SDS011;63134;52.020;4.714;2023-07-20T11:31:44;0.70;;;0.60;;
22786;SDS011;63134;52.020;4.714;2023-07-20T11:34:33;0.95;;;0.60;;
22786;SDS011;63134;52.020;4.714;2023-07-20T11:37:19;1.40;;;0.70;;
22786;SDS011;63134;52.020;4.714;2023-07-20T11:40:06;1.10;;;0.70;;
22786;SDS011;63134;52.020;4.714;2023-07-20T11:42:54;1.40;;;0.70;;
22786;SDS011;63134;52.020;4.714;2023-07-20T11:45:43;0.60;;;0.60;;
22786;SDS011;63134;52.020;4.714;2023-07-20T11:48:30;1.83;;;0.65;;
22786;SDS011;63134;52.020;4.714;2023-07-20T11:51:16;1.40;;;0.65;;
22786;SDS011;63134;52.020;4.714;2023-07-20T11:54:02;0.73;;;0.50;;
22786;SDS011;63134;52.020;4.714;2023-07-20T11:56:53;0.77;;;0.47;;
22786;SDS011;63134;52.020;4.714;2023-07-20T11:59:52;0.60;;;0.50;;
22786;SDS011;63134;52.020;4.714;2023-07-20T12:02:44;1.55;;;0.73;;
22786;SDS011;63134;52.020;4.714;2023-07-20T12:05:30;1.33;;;0.80;;
22786;SDS011;63134;52.020;4.714;2023-07-20T12:08:15;0.40;;;0.40;;
22786;SDS011;63134;52.020;4.714;2023-07-20T12:11:01;0.63;;;0.50;;
22786;SDS011;63134;52.020;4.714;2023-07-20T12:13:46;0.63;;;0.40;;
22786;SDS011;63134;52.020;4.714;2023-07-20T12:16:32;0.68;;;0.50;;
22786;SDS011;63134;52.020;4.714;2023-07-20T12:19:18;0.98;;;0.40;;
22786;SDS011;63134;52.020;4.714;2023-07-20T12:22:04;0.75;;;0.40;;
22786;SDS011;63134;52.020;4.714;2023-07-20T12:24:52;0.90;;;0.50;;
22786;SDS011;63134;52.020;4.714;2023-07-20T12:27:38;0.55;;;0.40;;
22786;SDS011;63134;52.020;4.714;2023-07-20T12:30:24;0.98;;;0.40;;
22786;SDS011;63134;52.020;4.714;2023-07-20T12:33:10;0.55;;;0.45;;
22786;SDS011;63134;52.020;4.714;2023-07-20T12:35:57;0.43;;;0.40;;
22786;SDS011;63134;52.020;4.714;2023-07-20T12:38:43;0.43;;;0.40;;
22786;SDS011;63134;52.020;4.714;2023-07-20T12:41:29;0.57;;;0.38;;
22786;SDS011;63134;52.020;4.714;2023-07-20T12:44:14;1.48;;;0.50;;
22786;SDS011;63134;52.020;4.714;2023-07-20T12:47:00;2.17;;;0.40;;
22786;SDS011;63134;52.020;4.714;2023-07-20T12:49:45;0.50;;;0.43;;
22786;SDS011;63134;52.020;4.714;2023-07-20T12:52:32;0.98;;;0.55;;
22786;SDS011;63134;52.020;4.714;2023-07-20T12:55:20;0.80;;;0.52;;
22786;SDS011;63134;52.020;4.714;2023-07-20T12:58:06;0.50;;;0.40;;
22786;SDS011;63134;52.020;4.714;2023-07-20T13:00:53;0.75;;;0.40;;
22786;SDS011;63134;52.020;4.714;2023-07-20T13:03:38;0.98;;;0.40;;
22786;SDS011;63134;52.020;4.714;2023-07-20T13:06:44;1.05;;;0.65;;
22786;SDS011;63134;52.020;4.714;2023-07-20T13:09:30;0.90;;;0.50;;
22786;SDS011;63134;52.020;4.714;2023-07-20T13:12:16;0.50;;;0.40;;
22786;SDS011;63134;52.020;4.714;2023-07-20T13:15:02;0.88;;;0.60;;
22786;SDS011;63134;52.020;4.714;2023-07-20T13:17:52;1.55;;;0.57;;
22786;SDS011;63134;52.020;4.714;2023-07-20T13:20:39;0.50;;;0.35;;
22786;SDS011;63134;52.020;4.714;2023-07-20T13:23:25;0.50;;;0.50;;
22786;SDS011;63134;52.020;4.714;2023-07-20T13:26:11;0.68;;;0.40;;
22786;SDS011;63134;52.020;4.714;2023-07-20T13:28:57;1.35;;;0.60;;
22786;SDS011;63134;52.020;4.714;2023-07-20T13:31:43;0.52;;;0.30;;
22786;SDS011;63134;52.020;4.714;2023-07-20T13:34:29;0.40;;;0.40;;
22786;SDS011;63134;52.020;4.714;2023-07-20T13:37:16;0.65;;;0.50;;
22786;SDS011;63134;52.020;4.714;2023-07-20T13:40:06;0.93;;;0.60;;
22786;SDS011;63134;52.020;4.714;2023-07-20T13:42:58;1.40;;;0.40;;
22786;SDS011;63134;52.020;4.714;2023-07-20T13:45:44;1.42;;;0.50;;
22786;SDS011;63134;52.020;4.714;2023-07-20T13:48:29;0.65;;;0.55;;
22786;SDS011;63134;52.020;4.714;2023-07-20T13:51:15;1.85;;;0.73;;
22786;SDS011;63134;52.020;4.714;2023-07-20T13:54:12;0.93;;;0.50;;
22786;SDS011;63134;52.020;4.714;2023-07-20T13:57:00;1.23;;;0.50;;
22786;SDS011;63134;52.020;4.714;2023-07-20T13:59:45;0.95;;;0.50;;
22786;SDS011;63134;52.020;4.714;2023-07-20T14:02:31;3.15;;;0.70;;
22786;SDS011;63134;52.020;4.714;2023-07-20T14:05:20;0.60;;;0.40;;
22786;SDS011;63134;52.020;4.714;2023-07-20T14:08:09;0.70;;;0.40;;
22786;SDS011;63134;52.020;4.714;2023-07-20T14:10:55;0.55;;;0.30;;
22786;SDS011;63134;52.020;4.714;2023-07-20T14:13:43;2.83;;;0.50;;
22786;SDS011;63134;52.020;4.714;2023-07-20T14:16:32;1.00;;;0.50;;
22786;SDS011;63134;52.020;4.714;2023-07-20T14:19:18;1.13;;;0.32;;
22786;SDS011;63134;52.020;4.714;2023-07-20T14:22:03;1.15;;;0.50;;
22786;SDS011;63134;52.020;4.714;2023-07-20T14:24:49;0.45;;;0.40;;
22786;SDS011;63134;52.020;4.714;2023-07-20T14:27:34;0.75;;;0.40;;
22786;SDS011;63134;52.020;4.714;2023-07-20T14:30:23;2.55;;;0.60;;
22786;SDS011;63134;52.020;4.714;2023-07-20T14:33:11;1.05;;;0.40;;
22786;SDS011;63134;52.020;4.714;2023-07-20T14:35:57;0.20;;;0.20;;
22786;SDS011;63134;52.020;4.714;2023-07-20T14:38:43;0.55;;;0.40;;
22786;SDS011;63134;52.020;4.714;2023-07-20T14:41:29;2.00;;;0.50;;
22786;SDS011;63134;52.020;4.714;2023-07-20T14:44:14;0.55;;;0.40;;
22786;SDS011;63134;52.020;4.714;2023-07-20T14:47:00;0.60;;;0.50;;
22786;SDS011;63134;52.020;4.714;2023-07-20T14:49:56;0.52;;;0.38;;
22786;SDS011;63134;52.020;4.714;2023-07-20T14:52:45;1.23;;;0.55;;
22786;SDS011;63134;52.020;4.714;2023-07-20T14:55:33;0.30;;;0.30;;
22786;SDS011;63134;52.020;4.714;2023-07-20T14:58:19;1.45;;;0.40;;
22786;SDS011;63134;52.020;4.714;2023-07-20T15:01:06;1.10;;;0.50;;
22786;SDS011;63134;52.020;4.714;2023-07-20T15:03:52;0.95;;;0.30;;
22786;SDS011;63134;52.020;4.714;2023-07-20T15:06:44;0.68;;;0.45;;
22786;SDS011;63134;52.020;4.714;2023-07-20T15:09:30;0.30;;;0.30;;
22786;SDS011;63134;52.020;4.714;2023-07-20T15:12:16;0.47;;;0.32;;
22786;SDS011;63134;52.020;4.714;2023-07-20T15:15:08;1.00;;;0.40;;
22786;SDS011;63134;52.020;4.714;2023-07-20T15:17:55;0.80;;;0.30;;
22786;SDS011;63134;52.020;4.714;2023-07-20T15:20:42;0.55;;;0.28;;
22786;SDS011;63134;52.020;4.714;2023-07-20T15:23:29;0.65;;;0.40;;
22786;SDS011;63134;52.020;4.714;2023-07-20T15:26:15;0.80;;;0.50;;
22786;SDS011;63134;52.020;4.714;2023-07-20T15:29:01;0.32;;;0.32;;
22786;SDS011;63134;52.020;4.714;2023-07-20T15:31:46;1.55;;;0.50;;
22786;SDS011;63134;52.020;4.714;2023-07-20T15:34:36;3.22;;;0.60;;
22786;SDS011;63134;52.020;4.714;2023-07-20T15:37:21;0.38;;;0.35;;
22786;SDS011;63134;52.020;4.714;2023-07-20T15:40:10;2.67;;;0.60;;
22786;SDS011;63134;52.020;4.714;2023-07-20T15:42:59;0.63;;;0.52;;
22786;SDS011;63134;52.020;4.714;2023-07-20T15:45:46;2.22;;;0.57;;
22786;SDS011;63134;52.020;4.714;2023-07-20T15:48:36;0.85;;;0.50;;
22786;SDS011;63134;52.020;4.714;2023-07-20T15:51:25;1.75;;;0.40;;
22786;SDS011;63134;52.020;4.714;2023-07-20T15:54:10;0.80;;;0.50;;
22786;SDS011;63134;52.020;4.714;2023-07-20T15:56:57;1.05;;;0.50;;
22786;SDS011;63134;52.020;4.714;2023-07-20T15:59:42;1.08;;;0.50;;
22786;SDS011;63134;52.020;4.714;2023-07-20T16:02:28;0.43;;;0.40;;
22786;SDS011;63134;52.020;4.714;2023-07-20T16:05:14;1.17;;;0.55;;
22786;SDS011;63134;52.020;4.714;2023-07-20T16:08:00;1.23;;;0.60;;
22786;SDS011;63134;52.020;4.714;2023-07-20T16:10:45;1.67;;;0.77;;
22786;SDS011;63134;52.020;4.714;2023-07-20T16:13:31;0.60;;;0.60;;
22786;SDS011;63134;52.020;4.714;2023-07-20T16:16:19;0.40;;;0.30;;
22786;SDS011;63134;52.020;4.714;2023-07-20T16:19:06;1.55;;;0.45;;
22786;SDS011;63134;52.020;4.714;2023-07-20T16:21:51;0.82;;;0.52;;
22786;SDS011;63134;52.020;4.714;2023-07-20T16:24:37;1.08;;;0.50;;
22786;SDS011;63134;52.020;4.714;2023-07-20T16:27:23;0.40;;;0.40;;
22786;SDS011;63134;52.020;4.714;2023-07-20T16:30:09;2.55;;;0.50;;
22786;SDS011;63134;52.020;4.714;2023-07-20T16:32:54;0.50;;;0.50;;
22786;SDS011;63134;52.020;4.714;2023-07-20T16:35:42;0.73;;;0.63;;
22786;SDS011;63134;52.020;4.714;2023-07-20T16:38:32;0.30;;;0.30;;
22786;SDS011;63134;52.020;4.714;2023-07-20T16:41:29;0.65;;;0.40;;
22786;SDS011;63134;52.020;4.714;2023-07-20T16:44:18;0.95;;;0.40;;
22786;SDS011;63134;52.020;4.714;2023-07-20T16:47:04;0.30;;;0.30;;
22786;SDS011;63134;52.020;4.714;2023-07-20T16:49:50;0.40;;;0.40;;
22786;SDS011;63134;52.020;4.714;2023-07-20T16:52:36;0.60;;;0.38;;
22786;SDS011;63134;52.020;4.714;2023-07-20T16:55:24;0.68;;;0.55;;
22786;SDS011;63134;52.020;4.714;2023-07-20T16:58:10;0.20;;;0.20;;
22786;SDS011;63134;52.020;4.714;2023-07-20T17:01:03;0.43;;;0.40;;
22786;SDS011;63134;52.020;4.714;2023-07-20T17:03:49;0.70;;;0.47;;